This is the latest recevied weather packets stored in our database for station/object EB2EMZ-15. If no packets are shown the sender has not sent any weather packets the latest 10 day(s).
| Time | Temp. | Humidity | Pressure | Rain* | Wind** | Luminosity | Snow |
|---|---|---|---|---|---|---|---|
| 1777496113 | 15.56° C | 87% | 990.5 hPa | 0 mm | - | - | - |
| 1777495815 | 15.56° C | 87% | 990.6 hPa | 0 mm | - | - | - |
| 1777495513 | 15.56° C | 87% | 990.7 hPa | 0 mm | - | - | - |
| 1777495216 | 15.56° C | 87% | 990.7 hPa | 0 mm | - | - | - |
| 1777494913 | 15.56° C | 87% | 990.4 hPa | 0 mm | - | - | - |
| 1777494616 | 15° C | 87% | 990.1 hPa | 0 mm | - | - | - |
| 1777494313 | 15° C | 87% | 989.9 hPa | 0 mm | - | - | - |
| 1777494015 | 15° C | 87% | 989.7 hPa | 0 mm | - | - | - |
| 1777493713 | 15° C | 87% | 989.5 hPa | 0 mm | - | - | - |
| 1777493416 | 15° C | 87% | 989.4 hPa | 0 mm | - | - | - |
| 1777493115 | 15° C | 87% | 989.4 hPa | 0 mm | - | - | - |
| 1777492813 | 15° C | 87% | 989.3 hPa | 0 mm | - | - | - |
| 1777492513 | 15° C | 86% | 989.3 hPa | 0 mm | - | - | - |
| 1777492216 | 15° C | 86% | 989.3 hPa | 0 mm | - | - | - |
| 1777491914 | 15° C | 85% | 988.9 hPa | 0 mm | - | - | - |
| 1777491618 | 15° C | 85% | 988.6 hPa | 0 mm | - | - | - |
| 1777491314 | 15.56° C | 84% | 988.6 hPa | 0 mm | - | - | - |
| 1777491016 | 15.56° C | 84% | 988.6 hPa | 0 mm | - | - | - |
| 1777490714 | 15.56° C | 84% | 988.2 hPa | 0 mm | - | - | - |
| 1777490415 | 15.56° C | 83% | 987.5 hPa | 0 mm | - | - | - |
| 1777490114 | 16.11° C | 83% | 988 hPa | 0 mm | - | - | - |
| 1777489816 | 16.67° C | 83% | 988.9 hPa | 0 mm | - | - | - |
| 1777489514 | 17.22° C | 82% | 988.8 hPa | 0 mm | - | - | - |
| 1777489213 | 17.22° C | 82% | 989 hPa | 0 mm | - | - | - |
| 1777488913 | 17.22° C | 81% | 988.3 hPa | 0 mm | - | - | - |
* Rain latest hour (hover to see other rain measurements)
** Current wind speed in m/s (hover to see current wind gust speed)